Richlands, VA

3:37 PM EDT on September 22, 2014 (GMT -0400)
Mountain Empire | Change Station
CLOSE
Current Station
Airport
Location: Marion,
Elevation: 2559 ft
Nearby Weather Stations

Elev 2559 ft 36.89 °N, 81.35 °W | Updated 22 minutes ago

Overcast
Overcast
63 °F
Feels Like 63 °F
N
6
Wind Variable Wind from WNW

Today
High -- | Low -- °F
--% Chance of Precip.
Yesterday
High -- | Low -- °F
Precip. -- in
7:15 AM 7:24 PM
Waning Crescent, 2% visible
Pressure 30.19 in
Visibility 10.0 miles
Clouds Clear
Dew Point 48 °F
Humidity 57%
Rainfall 0.00 in
Snow Depth Not available.
UV 6 out of 12
Pollen 5.20 out of 12
Air Quality Not available.
Flu Activity Not available.
METAR KMKJ 221915Z AUTO 30005KT 10SM CLR 17/09 A3019 RMK AO2 T01740089

More Conditions Fewer Conditions

Pressure 30.19 in
Visibility 10.0 miles
Clouds Clear
Dew Point 48 °F
Humidity 57%
Rainfall 0.00 in
Snow Depth Not available.
UV 6 out of 12
Pollen 5.20 out of 12
Air Quality Not available.
Flu Activity Not available.
METAR KMKJ 221915Z AUTO 30005KT 10SM CLR 17/09 A3019 RMK AO2 T01740089

More Conditions Fewer Conditions

10-Day Weather Forecast

Almanac

Astronomy

Sep. 22, 2014 Rise Set
Actual Time 7:15 AM EDT 7:24 PM EDT
Civil Twilight 6:49 AM EDT 7:50 PM EDT
Nautical Twilight 6:18 AM EDT 8:20 PM EDT
Astronomical Twilight 5:47 AM EDT 8:51 PM EDT
Moon 5:44 AM EDT 6:30 PM EDT
Length of Visible Light 13h 00m
Length of Day
12h 09m
Tomorrow will be 2m 20s shorter.
Waning Crescent, 2% of the Moon is Illuminated
Today
Waning Crescent
Sep 24
New
Oct 1
First Quarter
Oct 8
Full
Oct 15
Last Quarter

Today's Extremes

State Highs State Lows

Community

WunderPhotos

Upload Photos

1,755,514 photos uploaded!

WunderBlogs® & News

Nearby

Snow Depth

Station Depth Elevation
No new snow has been reported.

Earthquake Activity

City Distance Mag. Time & Date
No recent earthquake activity has been reported nearby.
Minimum magnitude displayed is 2.5.

Coastal Water Temperatures

Place Temperature
No Stations Reporting

Nearby Weather Stations